Time;durP1;ratioP1;P1;durP2;ratioP2;P2;SDS_P1;SDS_P2;PMS_P1;PMS_P2;Temp;Humidity;BMP_temperature;BMP_pressure;BME280_temperature;BME280_humidity;BME280_pressure;Samples;Min_cycle;Max_cycle;Signal;HPM_P1;HPM_P2
2022/07/25 00:01:44;;;;;;;;;;;;;;;;;;8427069;27;27527;-74
2022/07/25 00:05:44;;;;;;;;;;;;;;;;;;8425439;27;29025;-74
2022/07/25 00:09:47;;;;;;;;;;;;;;;;;;8429703;27;28210;-74
2022/07/25 00:13:49;;;;;;;;;;;;;;;;;;8424490;27;29187;-74
2022/07/25 00:17:49;;;;;;;;;;;;;;;;;;8420979;27;28268;-74
2022/07/25 00:21:50;;;;;;;;;;;;;;;;;;8425501;27;28458;-74
2022/07/25 00:25:50;;;;;;;;;;;;;;;;;;8424343;27;27328;-74
2022/07/25 00:29:50;;;;;;;;;;;;;;;;;;8424887;27;27223;-74
2022/07/25 00:33:51;;;;;;;;;;;;;;;;;;8422882;27;28731;-75
2022/07/25 00:37:53;;;;;;;;;;;;;;;;;;8424233;27;27300;-75
2022/07/25 00:41:53;;;;;;;;;;;;;;;;;;8425982;27;28280;-74
2022/07/25 00:45:53;;;;;;;;;;;;;;;;;;8421416;27;27367;-74
2022/07/25 00:49:53;;;;;;;;;;;;;;;;;;8425159;27;27625;-74
2022/07/25 00:53:54;;;;;;;;;;;;;;;;;;8419430;27;28317;-75
2022/07/25 00:57:54;;;;;;;;;;;;;;;;;;8421340;27;27256;-75
2022/07/25 01:01:54;;;;;;;;;;;;;;;;;;8423902;27;28115;-74
2022/07/25 01:05:54;;;;;;;;;;;;;;;;;;8422395;27;28566;-74
2022/07/25 01:09:54;;;;;;;;;;;;;;;;;;8418644;27;27516;-74
2022/07/25 01:13:54;;;;;;;;;;;;;;;;;;8427628;27;27302;-74
2022/07/25 01:17:54;;;;;;;;;;;;;;;;;;8418815;27;27071;-74
2022/07/25 01:21:55;;;;;;;;;;;;;;;;;;8424902;27;27988;-74
2022/07/25 01:25:55;;;;;;;;;;;;;;;;;;8423943;27;27211;-75
2022/07/25 01:29:55;;;;;;;;;;;;;;;;;;8424670;27;28178;-75
2022/07/25 01:33:55;;;;;;;;;;;;;;;;;;8430302;27;27339;-75
2022/07/25 01:37:55;;;;;;;;;;;;;;;;;;8432290;27;27434;-74
2022/07/25 01:41:55;;;;;;;;;;;;;;;;;;8425052;27;27241;-75
2022/07/25 01:45:56;;;;;;;;;;;;;;;;;;8423719;27;27385;-74
2022/07/25 01:49:56;;;;;;;;;;;;;;;;;;8438058;27;29381;-75
2022/07/25 01:53:58;;;;;;;;;;;;;;;;;;8429833;27;27737;-75
2022/07/25 01:57:58;;;;;;;;;;;;;;;;;;8428381;27;28623;-74
2022/07/25 02:01:58;;;;;;;;;;;;;;;;;;8433621;27;27196;-74
2022/07/25 02:05:59;;;;;;;;;;;;;;;;;;8424735;27;27296;-74
2022/07/25 02:09:59;;;;;;;;;;;;;;;;;;8433779;27;27437;-74
2022/07/25 02:13:59;;;;;;;;;;;;;;;;;;8426081;27;27294;-75
2022/07/25 02:17:59;;;;;;;;;;;;;;;;;;8429719;27;27659;-74
2022/07/25 02:21:59;;;;;;;;;;;;;;;;;;8427192;27;28708;-75
2022/07/25 02:26:00;;;;;;;;;;;;;;;;;;8418192;27;28344;-75
2022/07/25 02:30:00;;;;;;;;;;;;;;;;;;8424747;27;28356;-74
2022/07/25 02:34:00;;;;;;;;;;;;;;;;;;8426232;27;28280;-75
2022/07/25 02:38:00;;;;;;;;;;;;;;;;;;8421967;27;27361;-74
2022/07/25 02:42:00;;;;;;;;;;;;;;;;;;8430563;27;28458;-75
2022/07/25 02:46:00;;;;;;;;;;;;;;;;;;8427545;27;29151;-74
2022/07/25 02:50:00;;;;;;;;;;;;;;;;;;8425379;27;27131;-75
2022/07/25 02:54:01;;;;;;;;;;;;;;;;;;8426027;27;28247;-74
2022/07/25 02:58:01;;;;;;;;;;;;;;;;;;8426584;27;27469;-75
2022/07/25 03:02:01;;;;;;;;;;;;;;;;;;8422267;27;27290;-74
2022/07/25 03:06:01;;;;;;;;;;;;;;;;;;8420757;27;28335;-74
2022/07/25 03:10:01;;;;;;;;;;;;;;;;;;8426085;27;28370;-74
2022/07/25 03:14:02;;;;;;;;;;;;;;;;;;8426654;27;27136;-74
2022/07/25 03:18:02;;;;;;;;;;;;;;;;;;8429422;27;27165;-74
2022/07/25 03:22:02;;;;;;;;;;;;;;;;;;8429337;27;27100;-74
2022/07/25 03:26:02;;;;;;;;;;;;;;;;;;8425782;27;28557;-74
2022/07/25 03:30:03;;;;;;;;;;;;;;;;;;8426199;27;27209;-74
2022/07/25 03:34:03;;;;;;;;;;;;;;;;;;8421296;27;27195;-74
2022/07/25 03:38:03;;;;;;;;;;;;;;;;;;8432298;27;27384;-75
2022/07/25 03:42:03;;;;;;;;;;;;;;;;;;8426635;27;28508;-75
2022/07/25 03:46:03;;;;;;;;;;;;;;;;;;8428325;27;27518;-75
2022/07/25 03:50:03;;;;;;;;;;;;;;;;;;8423458;27;27486;-76
2022/07/25 03:54:04;;;;;;;;;;;;;;;;;;8417789;27;27390;-75
2022/07/25 03:58:05;;;;;;;;;;;;;;;;;;8425651;27;27125;-74
2022/07/25 04:02:05;;;;;;;;;;;;;;;;;;8422848;27;29535;-74
2022/07/25 04:06:06;;;;;;;;;;;;;;;;;;8426368;27;27890;-74
2022/07/25 04:10:06;;;;;;;;;;;;;;;;;;8419926;27;27352;-74
2022/07/25 04:14:08;;;;;;;;;;;;;;;;;;8425722;27;27490;-74
2022/07/25 04:18:08;;;;;;;;;;;;;;;;;;8432442;27;28620;-74
2022/07/25 04:22:08;;;;;;;;;;;;;;;;;;8423953;27;28131;-74
2022/07/25 04:26:09;;;;;;;;;;;;;;;;;;8425917;27;27396;-75
2022/07/25 04:30:09;;;;;;;;;;;;;;;;;;8424875;27;27442;-74
2022/07/25 04:34:09;;;;;;;;;;;;;;;;;;8426867;27;27442;-74
2022/07/25 04:38:09;;;;;;;;;;;;;;;;;;8420816;27;27364;-75
2022/07/25 04:42:09;;;;;;;;;;;;;;;;;;8424044;27;28509;-74
2022/07/25 04:46:12;;;;;;;;;;;;;;;;;;8430151;27;28151;-74
2022/07/25 04:50:14;;;;;;;;;;;;;;;;;;8422252;27;28222;-75
2022/07/25 04:54:15;;;;;;;;;;;;;;;;;;8418991;27;28701;-74
2022/07/25 04:58:15;;;;;;;;;;;;;;;;;;8425746;27;28297;-75
2022/07/25 05:02:15;;;;;;;;;;;;;;;;;;8420852;27;27275;-74
2022/07/25 05:06:15;;;;;;;;;;;;;;;;;;8425111;27;28013;-74
2022/07/25 05:10:15;;;;;;;;;;;;;;;;;;8422316;27;27325;-74
2022/07/25 05:14:15;;;;;;;;;;;;;;;;;;8425593;27;27072;-74
2022/07/25 05:18:16;;;;;;;;;;;;;;;;;;8423127;27;27806;-74
2022/07/25 05:22:16;;;;;;;;;;;;;;;;;;8422220;27;28449;-74
2022/07/25 05:26:16;;;;;;;;;;;;;;;;;;8425209;27;27364;-74
2022/07/25 05:30:16;;;;;;;;;;;;;;;;;;8428122;27;27456;-75
2022/07/25 05:34:16;;;;;;;;;;;;;;;;;;8423118;27;46629;-74
2022/07/25 05:38:16;;;;;;;;;;;;;;;;;;8421403;27;27530;-75
2022/07/25 05:42:17;;;;;;;;;;;;;;;;;;8420657;27;28238;-74
2022/07/25 05:46:17;;;;;;;;;;;;;;;;;;8421503;27;27332;-75
2022/07/25 05:50:17;;;;;;;;;;;;;;;;;;8423245;27;27764;-74
2022/07/25 05:54:17;;;;;;;;;;;;;;;;;;8428685;27;27329;-74
2022/07/25 05:58:18;;;;;;;;;;;;;;;;;;8419868;27;27164;-74
2022/07/25 06:02:18;;;;;;;;;;;;;;;;;;8422294;27;27927;-75
2022/07/25 06:06:18;;;;;;;;;;;;;;;;;;8416641;27;29338;-74
2022/07/25 06:10:18;;;;;;;;;;;;;;;;;;8422965;27;28665;-73
2022/07/25 06:14:18;;;;;;;;;;;;;;;;;;8427223;27;27656;-74
2022/07/25 06:18:18;;;;;;;;;;;;;;;;;;8428389;27;27489;-74
2022/07/25 06:22:18;;;;;;;;;;;;;;;;;;8427167;27;28570;-74
2022/07/25 06:26:19;;;;;;;;;;;;;;;;;;8427654;27;27158;-75
2022/07/25 06:30:21;;;;;;;;;;;;;;;;;;8432514;27;28990;-75
2022/07/25 06:34:21;;;;;;;;;;;;;;;;;;8425425;27;27139;-74
2022/07/25 06:38:21;;;;;;;;;;;;;;;;;;8433773;27;27202;-74
2022/07/25 06:42:21;;;;;;;;;;;;;;;;;;8425690;27;27218;-74
2022/07/25 06:46:22;;;;;;;;;;;;;;;;;;8433243;27;27281;-75
2022/07/25 06:50:22;;;;;;;;;;;;;;;;;;8427819;27;27362;-75
2022/07/25 06:54:22;;;;;;;;;;;;;;;;;;8421989;27;29289;-75
2022/07/25 06:58:22;;;;;;;;;;;;;;;;;;8426412;27;28187;-74
2022/07/25 07:02:22;;;;;;;;;;;;;;;;;;8423455;27;27235;-74
2022/07/25 07:06:22;;;;;;;;;;;;;;;;;;8420375;27;27358;-74
2022/07/25 07:10:23;;;;;;;;;;;;;;;;;;8426055;27;28088;-74
2022/07/25 07:14:23;;;;;;;;;;;;;;;;;;8421162;27;28444;-75
2022/07/25 07:18:23;;;;;;;;;;;;;;;;;;8426370;27;28305;-75
2022/07/25 07:22:23;;;;;;;;;;;;;;;;;;8426492;27;27434;-75
2022/07/25 07:26:23;;;;;;;;;;;;;;;;;;8428458;27;27161;-74
2022/07/25 07:30:23;;;;;;;;;;;;;;;;;;8427563;27;27100;-74
2022/07/25 07:34:24;;;;;;;;;;;;;;;;;;8429586;27;28169;-75
2022/07/25 07:38:24;;;;;;;;;;;;;;;;;;8426749;27;27456;-75
2022/07/25 07:42:24;;;;;;;;;;;;;;;;;;8424240;27;28682;-74
2022/07/25 07:46:24;;;;;;;;;;;;;;;;;;8427657;27;27205;-75
2022/07/25 07:50:25;;;;;;;;;;;;;;;;;;8430067;27;46405;-74
2022/07/25 07:58:44;;;;;;;;;;;;;;;;;;8421621;27;27464;-74
2022/07/25 08:02:45;;;;;;;;;;;;;;;;;;8426159;27;27280;-75
2022/07/25 08:06:45;;;;;;;;;;;;;;;;;;8421995;27;28969;-75
2022/07/25 08:10:45;;;;;;;;;;;;;;;;;;8423408;27;28549;-75
2022/07/25 08:14:45;;;;;;;;;;;;;;;;;;8427274;27;27423;-75
2022/07/25 08:18:45;;;;;;;;;;;;;;;;;;8426305;27;27515;-75
2022/07/25 08:22:45;;;;;;;;;;;;;;;;;;8426753;27;28339;-75
2022/07/25 08:26:48;;;;;;;;;;;;;;;;;;8420811;27;27195;-75
2022/07/25 08:30:48;;;;;;;;;;;;;;;;;;8424157;27;27326;-75
2022/07/25 08:34:48;;;;;;;;;;;;;;;;;;8420512;27;27563;-75
2022/07/25 08:38:48;;;;;;;;;;;;;;;;;;8422829;27;28713;-75
2022/07/25 08:42:48;;;;;;;;;;;;;;;;;;8425802;27;27486;-75
2022/07/25 08:46:48;;;;;;;;;;;;;;;;;;8419944;27;27415;-75
2022/07/25 08:50:49;;;;;;;;;;;;;;;;;;8424788;27;28290;-75
2022/07/25 08:54:49;;;;;;;;;;;;;;;;;;8421083;27;27376;-75
2022/07/25 08:58:50;;;;;;;;;;;;;;;;;;8423732;27;27148;-75
2022/07/25 09:02:50;;;;;;;;;;;;;;;;;;8424317;27;27833;-75
2022/07/25 09:06:50;;;;;;;;;;;;;;;;;;8422654;27;27574;-75
2022/07/25 09:10:50;;;;;;;;;;;;;;;;;;8424225;27;27324;-74
2022/07/25 09:14:50;;;;;;;;;;;;;;;;;;8420019;27;27236;-74
2022/07/25 09:18:50;;;;;;;;;;;;;;;;;;8419532;27;27600;-74
2022/07/25 09:22:51;;;;;;;;;;;;;;;;;;8421302;27;28358;-75
2022/07/25 09:26:51;;;;;;;;;;;;;;;;;;8423749;27;28360;-75
2022/07/25 09:30:51;;;;;;;;;;;;;;;;;;8421852;27;27402;-74
2022/07/25 09:34:51;;;;;;;;;;;;;;;;;;8423918;27;28471;-74
2022/07/25 09:38:51;;;;;;;;;;;;;;;;;;8423090;27;28494;-75
2022/07/25 09:42:51;;;;;;;;;;;;;;;;;;8424238;27;28642;-75
2022/07/25 09:46:52;;;;;;;;;;;;;;;;;;8414655;27;27599;-74
2022/07/25 09:50:52;;;;;;;;;;;;;;;;;;8422263;27;27781;-74
2022/07/25 09:54:55;;;;;;;;;;;;;;;;;;8427725;27;28505;-75
2022/07/25 09:58:56;;;;;;;;;;;;;;;;;;8431300;27;28684;-75
2022/07/25 10:02:56;;;;;;;;;;;;;;;;;;8422280;27;28467;-74
2022/07/25 10:06:56;;;;;;;;;;;;;;;;;;8426985;27;28800;-75
2022/07/25 10:10:59;;;;;;;;;;;;;;;;;;8425549;27;27884;-74
2022/07/25 10:14:59;;;;;;;;;;;;;;;;;;8422426;27;28208;-75
2022/07/25 10:18:59;;;;;;;;;;;;;;;;;;8430783;27;27691;-75
2022/07/25 10:22:59;;;;;;;;;;;;;;;;;;8428755;27;27522;-75
2022/07/25 10:26:59;;;;;;;;;;;;;;;;;;8425555;27;27981;-75
2022/07/25 10:30:59;;;;;;;;;;;;;;;;;;8426638;27;29030;-75
2022/07/25 10:34:59;;;;;;;;;;;;;;;;;;8430034;27;27802;-75
2022/07/25 10:39:00;;;;;;;;;;;;;;;;;;8433919;27;27769;-75
2022/07/25 10:43:00;;;;;;;;;;;;;;;;;;8433592;27;27760;-74
2022/07/25 10:47:00;;;;;;;;;;;;;;;;;;8422836;27;27717;-75
2022/07/25 10:51:00;;;;;;;;;;;;;;;;;;8431490;27;27832;-75
2022/07/25 10:55:01;;;;;;;;;;;;;;;;;;8426951;27;27848;-75
2022/07/25 10:59:01;;;;;;;;;;;;;;;;;;8424977;27;27567;-74
2022/07/25 11:03:01;;;;;;;;;;;;;;;;;;8425080;27;28046;-75
2022/07/25 11:07:01;;;;;;;;;;;;;;;;;;8422716;27;27503;-75
2022/07/25 11:11:02;;;;;;;;;;;;;;;;;;8426092;27;28634;-74
2022/07/25 11:15:02;;;;;;;;;;;;;;;;;;8426358;27;27745;-74
2022/07/25 11:19:02;;;;;;;;;;;;;;;;;;8427709;27;28337;-75
2022/07/25 11:23:02;;;;;;;;;;;;;;;;;;8426600;27;28666;-74
2022/07/25 11:27:02;;;;;;;;;;;;;;;;;;8425415;27;29266;-75
2022/07/25 11:31:02;;;;;;;;;;;;;;;;;;8420437;27;28828;-74
2022/07/25 11:35:02;;;;;;;;;;;;;;;;;;8427855;27;27934;-75
2022/07/25 11:39:03;;;;;;;;;;;;;;;;;;8425933;27;28584;-75
2022/07/25 11:43:03;;;;;;;;;;;;;;;;;;8430204;27;28239;-74
2022/07/25 11:47:05;;;;;;;;;;;;;;;;;;8424375;27;28697;-74
2022/07/25 11:51:08;;;;;;;;;;;;;;;;;;8427557;27;27791;-75
2022/07/25 11:55:08;;;;;;;;;;;;;;;;;;8427345;27;28295;-75
2022/07/25 11:59:08;;;;;;;;;;;;;;;;;;8429795;27;27849;-75
2022/07/25 12:03:08;;;;;;;;;;;;;;;;;;8425814;27;27735;-75
2022/07/25 12:07:08;;;;;;;;;;;;;;;;;;8427557;27;27895;-74
2022/07/25 12:11:09;;;;;;;;;;;;;;;;;;8424569;27;27858;-75
2022/07/25 12:15:09;;;;;;;;;;;;;;;;;;8423146;27;27828;-75
2022/07/25 12:19:09;;;;;;;;;;;;;;;;;;8427589;27;27846;-75
2022/07/25 12:23:10;;;;;;;;;;;;;;;;;;8427598;27;29564;-74
2022/07/25 12:27:10;;;;;;;;;;;;;;;;;;8425280;27;28044;-75
2022/07/25 12:31:10;;;;;;;;;;;;;;;;;;8427269;27;27820;-74
2022/07/25 12:35:10;;;;;;;;;;;;;;;;;;8422894;27;28001;-75
2022/07/25 12:39:10;;;;;;;;;;;;;;;;;;8419922;27;27989;-74
2022/07/25 12:43:10;;;;;;;;;;;;;;;;;;8424435;27;27839;-75
2022/07/25 12:47:11;;;;;;;;;;;;;;;;;;8426581;27;28318;-75
2022/07/25 12:51:11;;;;;;;;;;;;;;;;;;8424859;27;27665;-75
2022/07/25 12:55:11;;;;;;;;;;;;;;;;;;8423518;27;28658;-74
2022/07/25 12:59:11;;;;;;;;;;;;;;;;;;8425699;27;28677;-75
2022/07/25 13:03:11;;;;;;;;;;;;;;;;;;8432370;27;27773;-75
2022/07/25 13:07:11;;;;;;;;;;;;;;;;;;8430496;27;27711;-75
2022/07/25 13:11:12;;;;;;;;;;;;;;;;;;8421649;27;27883;-75
2022/07/25 13:15:12;;;;;;;;;;;;;;;;;;8430246;27;27720;-75
2022/07/25 13:19:12;;;;;;;;;;;;;;;;;;8434851;27;28510;-75
2022/07/25 13:23:12;;;;;;;;;;;;;;;;;;8425521;27;27783;-75
2022/07/25 13:27:12;;;;;;;;;;;;;;;;;;8432704;27;27913;-75
2022/07/25 13:31:12;;;;;;;;;;;;;;;;;;8426985;27;27697;-75
2022/07/25 13:35:12;;;;;;;;;;;;;;;;;;8433881;27;28676;-75
2022/07/25 13:39:13;;;;;;;;;;;;;;;;;;8433020;27;27738;-75
2022/07/25 13:43:13;;;;;;;;;;;;;;;;;;8431847;27;27999;-75
2022/07/25 13:47:15;;;;;;;;;;;;;;;;;;8434080;27;27755;-75
2022/07/25 13:51:15;;;;;;;;;;;;;;;;;;8431834;27;29149;-75
2022/07/25 13:55:18;;;;;;;;;;;;;;;;;;8430287;27;27802;-75
2022/07/25 13:59:18;;;;;;;;;;;;;;;;;;8431188;27;27922;-75
2022/07/25 14:03:18;;;;;;;;;;;;;;;;;;8426122;27;28580;-75
2022/07/25 14:07:18;;;;;;;;;;;;;;;;;;8428303;27;27769;-75
2022/07/25 14:11:18;;;;;;;;;;;;;;;;;;8433799;27;27681;-75
2022/07/25 14:15:18;;;;;;;;;;;;;;;;;;8434774;27;27609;-75
2022/07/25 14:19:19;;;;;;;;;;;;;;;;;;8425572;27;27704;-75
2022/07/25 14:23:19;;;;;;;;;;;;;;;;;;8427487;27;27763;-75
2022/07/25 14:27:19;;;;;;;;;;;;;;;;;;8432113;27;28458;-74
2022/07/25 14:31:20;;;;;;;;;;;;;;;;;;8427640;27;28686;-75
2022/07/25 14:35:20;;;;;;;;;;;;;;;;;;8429682;27;28110;-75
2022/07/25 14:39:20;;;;;;;;;;;;;;;;;;8430353;27;28237;-75
2022/07/25 14:43:20;;;;;;;;;;;;;;;;;;8428975;27;29851;-75
2022/07/25 14:47:20;;;;;;;;;;;;;;;;;;8433151;27;29569;-75
2022/07/25 14:51:21;;;;;;;;;;;;;;;;;;8426503;27;28956;-75
2022/07/25 14:55:21;;;;;;;;;;;;;;;;;;8424984;27;28907;-75
2022/07/25 14:59:21;;;;;;;;;;;;;;;;;;8433219;27;28070;-75
2022/07/25 15:03:21;;;;;;;;;;;;;;;;;;8432067;27;29455;-75
2022/07/25 15:07:21;;;;;;;;;;;;;;;;;;8430726;27;28284;-75
2022/07/25 15:11:21;;;;;;;;;;;;;;;;;;8428209;27;27785;-75
2022/07/25 15:15:21;;;;;;;;;;;;;;;;;;8430358;27;27870;-75
2022/07/25 15:19:22;;;;;;;;;;;;;;;;;;8430711;27;27856;-75
2022/07/25 15:23:23;;;;;;;;;;;;;;;;;;8425787;27;28268;-75
2022/07/25 15:27:23;;;;;;;;;;;;;;;;;;8434544;27;28166;-75
2022/07/25 15:31:25;;;;;;;;;;;;;;;;;;8430591;27;27848;-75
2022/07/25 15:35:25;;;;;;;;;;;;;;;;;;8424246;27;28154;-75
2022/07/25 15:39:25;;;;;;;;;;;;;;;;;;8425705;27;28654;-75
2022/07/25 15:43:25;;;;;;;;;;;;;;;;;;8427695;27;27966;-75
2022/07/25 15:47:25;;;;;;;;;;;;;;;;;;8429269;27;28045;-75
2022/07/25 15:51:25;;;;;;;;;;;;;;;;;;8422665;27;27652;-75
2022/07/25 15:55:26;;;;;;;;;;;;;;;;;;8428725;27;27734;-75
2022/07/25 15:59:26;;;;;;;;;;;;;;;;;;8429650;27;27817;-75
2022/07/25 16:03:26;;;;;;;;;;;;;;;;;;8427857;27;27850;-75
2022/07/25 16:07:26;;;;;;;;;;;;;;;;;;8430315;27;27858;-75
2022/07/25 16:11:26;;;;;;;;;;;;;;;;;;8428362;27;29240;-75
2022/07/25 16:15:27;;;;;;;;;;;;;;;;;;8430321;27;29245;-75
2022/07/25 16:19:27;;;;;;;;;;;;;;;;;;8431713;27;27607;-75
2022/07/25 16:23:29;;;;;;;;;;;;;;;;;;8429613;27;27592;-75
2022/07/25 16:27:29;;;;;;;;;;;;;;;;;;8428630;27;28769;-75
2022/07/25 16:31:30;;;;;;;;;;;;;;;;;;8429051;27;27675;-75
2022/07/25 16:35:30;;;;;;;;;;;;;;;;;;8424070;27;28232;-75
2022/07/25 16:39:30;;;;;;;;;;;;;;;;;;8425974;27;28558;-75
2022/07/25 16:43:30;;;;;;;;;;;;;;;;;;8432195;27;27559;-75
2022/07/25 16:47:30;;;;;;;;;;;;;;;;;;8425962;27;27665;-75
2022/07/25 16:51:30;;;;;;;;;;;;;;;;;;8425743;27;28889;-75
2022/07/25 16:55:30;;;;;;;;;;;;;;;;;;8430634;27;27652;-75
2022/07/25 16:59:31;;;;;;;;;;;;;;;;;;8429738;27;27875;-75
2022/07/25 17:03:31;;;;;;;;;;;;;;;;;;8422505;27;28767;-75
2022/07/25 17:07:31;;;;;;;;;;;;;;;;;;8430452;27;27652;-74
2022/07/25 17:11:33;;;;;;;;;;;;;;;;;;8421160;27;28407;-75
2022/07/25 17:15:33;;;;;;;;;;;;;;;;;;8427642;27;28828;-75
2022/07/25 17:19:38;;;;;;;;;;;;;;;;;;8424658;27;28330;-75
2022/07/25 17:23:38;;;;;;;;;;;;;;;;;;8427746;27;27788;-75
2022/07/25 17:27:38;;;;;;;;;;;;;;;;;;8433014;27;27910;-75
2022/07/25 17:31:39;;;;;;;;;;;;;;;;;;8428398;27;28625;-75
2022/07/25 17:35:39;;;;;;;;;;;;;;;;;;8433295;27;27743;-75
2022/07/25 17:39:41;;;;;;;;;;;;;;;;;;8422996;27;27707;-75
2022/07/25 17:43:41;;;;;;;;;;;;;;;;;;8419985;27;27834;-75
2022/07/25 17:47:42;;;;;;;;;;;;;;;;;;8424132;27;28968;-75
2022/07/25 17:51:42;;;;;;;;;;;;;;;;;;8423144;27;27532;-75
2022/07/25 17:55:42;;;;;;;;;;;;;;;;;;8426544;27;28543;-75
2022/07/25 17:59:42;;;;;;;;;;;;;;;;;;8427154;27;28832;-74
2022/07/25 18:03:46;;;;;;;;;;;;;;;;;;8424621;27;27429;-75
2022/07/25 18:07:48;;;;;;;;;;;;;;;;;;8427518;27;27565;-75
2022/07/25 18:11:48;;;;;;;;;;;;;;;;;;8429574;27;28615;-75
2022/07/25 18:15:49;;;;;;;;;;;;;;;;;;8421213;27;28755;-75
2022/07/25 18:19:49;;;;;;;;;;;;;;;;;;8431105;27;27441;-75
2022/07/25 18:23:49;;;;;;;;;;;;;;;;;;8434566;27;27773;-75
2022/07/25 18:27:49;;;;;;;;;;;;;;;;;;8434377;27;28619;-74
2022/07/25 18:31:49;;;;;;;;;;;;;;;;;;8426403;27;29488;-75
2022/07/25 18:35:50;;;;;;;;;;;;;;;;;;8432261;27;27596;-75
2022/07/25 18:39:50;;;;;;;;;;;;;;;;;;8423573;27;27740;-75
2022/07/25 18:43:50;;;;;;;;;;;;;;;;;;8432835;27;27501;-75
2022/07/25 18:47:50;;;;;;;;;;;;;;;;;;8428598;27;27455;-75
2022/07/25 18:51:50;;;;;;;;;;;;;;;;;;8431444;27;28501;-75
2022/07/25 18:55:51;;;;;;;;;;;;;;;;;;8432869;27;28742;-74
2022/07/25 18:59:51;;;;;;;;;;;;;;;;;;8423683;27;27541;-75
2022/07/25 19:03:51;;;;;;;;;;;;;;;;;;8425493;27;27831;-74
2022/07/25 19:07:51;;;;;;;;;;;;;;;;;;8427368;27;28486;-75
2022/07/25 19:11:51;;;;;;;;;;;;;;;;;;8434730;27;27578;-74
2022/07/25 19:15:51;;;;;;;;;;;;;;;;;;8426871;27;29033;-74
2022/07/25 19:19:52;;;;;;;;;;;;;;;;;;8421920;27;28388;-74
2022/07/25 19:23:52;;;;;;;;;;;;;;;;;;8426838;27;28659;-74
2022/07/25 19:27:52;;;;;;;;;;;;;;;;;;8427617;27;28526;-75
2022/07/25 19:31:52;;;;;;;;;;;;;;;;;;8424052;27;29137;-75
2022/07/25 19:35:53;;;;;;;;;;;;;;;;;;8430017;27;28086;-75
2022/07/25 19:39:55;;;;;;;;;;;;;;;;;;8432118;27;27183;-75
2022/07/25 19:43:55;;;;;;;;;;;;;;;;;;8426269;27;28394;-74
2022/07/25 19:47:55;;;;;;;;;;;;;;;;;;8425270;27;28180;-75
2022/07/25 19:51:56;;;;;;;;;;;;;;;;;;8429018;27;27204;-74
2022/07/25 19:55:56;;;;;;;;;;;;;;;;;;8428947;27;27313;-74
2022/07/25 19:59:56;;;;;;;;;;;;;;;;;;8429224;27;27292;-75
2022/07/25 20:03:56;;;;;;;;;;;;;;;;;;8429047;27;27489;-75
2022/07/25 20:07:56;;;;;;;;;;;;;;;;;;8430241;27;28087;-74
2022/07/25 20:11:56;;;;;;;;;;;;;;;;;;8429044;27;28277;-74
2022/07/25 20:15:57;;;;;;;;;;;;;;;;;;8430694;27;27351;-75
2022/07/25 20:19:57;;;;;;;;;;;;;;;;;;8430220;27;27682;-75
2022/07/25 20:23:57;;;;;;;;;;;;;;;;;;8425499;27;28427;-74
2022/07/25 20:28:14;;;;;;;;;;;;;;;;;;8489891;27;27823;-73
2022/07/25 20:32:14;;;;;;;;;;;;;;;;;;8486784;27;27878;-73
2022/07/25 20:36:15;;;;;;;;;;;;;;;;;;8479097;27;27480;-73
2022/07/25 20:40:15;;;;;;;;;;;;;;;;;;8482362;27;28491;-73
2022/07/25 20:44:15;;;;;;;;;;;;;;;;;;8483187;27;27249;-73
2022/07/25 20:48:15;;;;;;;;;;;;;;;;;;8484232;27;27256;-73
2022/07/25 20:52:15;;;;;;;;;;;;;;;;;;8491206;27;28457;-73
2022/07/25 20:56:15;;;;;;;;;;;;;;;;;;8477297;27;27468;-73
2022/07/25 21:00:15;;;;;;;;;;;;;;;;;;8480958;27;27242;-73
2022/07/25 21:04:16;;;;;;;;;;;;;;;;;;8484379;27;28564;-73
2022/07/25 21:08:16;;;;;;;;;;;;;;;;;;8488748;27;28471;-73
2022/07/25 21:12:16;;;;;;;;;;;;;;;;;;8485588;27;27446;-73
2022/07/25 21:16:17;;;;;;;;;;;;;;;;;;8483964;27;27503;-73
2022/07/25 21:20:17;;;;;;;;;;;;;;;;;;8480102;27;27336;-74
2022/07/25 21:24:17;;;;;;;;;;;;;;;;;;8486221;27;27294;-73
2022/07/25 21:28:17;;;;;;;;;;;;;;;;;;8487745;27;28312;-73
2022/07/25 21:32:18;;;;;;;;;;;;;;;;;;8487389;27;27407;-73
2022/07/25 21:36:18;;;;;;;;;;;;;;;;;;8475916;27;27366;-73
2022/07/25 21:40:19;;;;;;;;;;;;;;;;;;8464281;27;27382;-72
2022/07/25 21:44:19;;;;;;;;;;;;;;;;;;8464925;27;29070;-73
2022/07/25 21:50:36;;;;;;;;;;;;;;;;;;8462092;27;28087;-73
2022/07/25 21:52:39;;;;;;;;;;;;;;;;;;8452399;27;27499;-73
2022/07/25 21:56:40;;;;;;;;;;;;;;;;;;8465867;27;29208;-73
2022/07/25 22:00:40;;;;;;;;;;;;;;;;;;8457094;27;28555;-73
2022/07/25 22:04:41;;;;;;;;;;;;;;;;;;8459268;27;27984;-73
2022/07/25 22:08:43;;;;;;;;;;;;;;;;;;8455756;27;28254;-75
2022/07/25 22:12:43;;;;;;;;;;;;;;;;;;8458146;27;28650;-75
2022/07/25 22:16:43;;;;;;;;;;;;;;;;;;8461852;27;27856;-75
2022/07/25 22:20:44;;;;;;;;;;;;;;;;;;8458536;27;27566;-75
2022/07/25 22:24:44;;;;;;;;;;;;;;;;;;8460712;27;27292;-75
2022/07/25 22:28:44;;;;;;;;;;;;;;;;;;8461230;27;27275;-75
2022/07/25 22:32:44;;;;;;;;;;;;;;;;;;8461121;27;27370;-75
2022/07/25 22:36:45;;;;;;;;;;;;;;;;;;8457815;27;27388;-75
2022/07/25 22:40:45;;;;;;;;;;;;;;;;;;8461193;27;28384;-75
2022/07/25 22:44:45;;;;;;;;;;;;;;;;;;8463056;27;27227;-75
2022/07/25 22:48:45;;;;;;;;;;;;;;;;;;8459007;27;29065;-75
2022/07/25 22:52:45;;;;;;;;;;;;;;;;;;8464696;27;27282;-75
2022/07/25 22:56:46;;;;;;;;;;;;;;;;;;8460394;27;28111;-75
2022/07/25 23:00:46;;;;;;;;;;;;;;;;;;8462191;27;27307;-75
2022/07/25 23:04:46;;;;;;;;;;;;;;;;;;8459745;27;27229;-75
2022/07/25 23:08:46;;;;;;;;;;;;;;;;;;8454313;27;27372;-75
2022/07/25 23:12:46;;;;;;;;;;;;;;;;;;8453090;27;46860;-75
2022/07/25 23:17:15;;;;;;;;;;;;;;;;;;8455160;27;29950;-75
2022/07/25 23:21:06;;;;;;;;;;;;;;;;;;8454592;27;27142;-75
2022/07/25 23:25:09;;;;;;;;;;;;;;;;;;8454060;27;27255;-75
2022/07/25 23:29:09;;;;;;;;;;;;;;;;;;8458500;27;29173;-75
2022/07/25 23:33:09;;;;;;;;;;;;;;;;;;8462389;27;27301;-76
2022/07/25 23:37:09;;;;;;;;;;;;;;;;;;8458634;27;28421;-75
2022/07/25 23:41:09;;;;;;;;;;;;;;;;;;8456326;27;27361;-75
2022/07/25 23:45:10;;;;;;;;;;;;;;;;;;8458562;27;27547;-75
2022/07/25 23:49:10;;;;;;;;;;;;;;;;;;8461777;27;27566;-75
2022/07/25 23:53:10;;;;;;;;;;;;;;;;;;8463253;27;28249;-75
2022/07/25 23:57:11;;;;;;;;;;;;;;;;;;8451951;27;27381;-75
